createdAt,value
2019-03-08T00:01:13.658Z,96127.00
2019-03-08T00:03:43.027Z,96145.00
2019-03-08T00:06:12.379Z,96152.00
2019-03-08T00:08:41.743Z,96154.00
2019-03-08T00:11:11.104Z,96162.00
2019-03-08T00:13:43.349Z,96159.00
2019-03-08T00:16:12.720Z,96158.00
2019-03-08T00:18:42.071Z,96176.00
2019-03-08T00:21:12.981Z,96151.00
2019-03-08T00:23:43.844Z,96162.00
2019-03-08T00:26:13.200Z,96167.00
2019-03-08T00:28:42.636Z,96177.00
2019-03-08T00:31:14.218Z,96165.00
2019-03-08T00:33:43.577Z,96177.00
2019-03-08T00:36:13.012Z,96177.00
2019-03-08T00:38:42.743Z,96169.00
2019-03-08T00:41:12.096Z,96188.00
2019-03-08T00:43:41.442Z,96185.00
2019-03-08T00:46:11.277Z,96177.00
2019-03-08T00:48:40.640Z,96185.00
2019-03-08T00:51:09.983Z,96195.00
2019-03-08T00:53:39.362Z,96175.00
2019-03-08T00:56:08.718Z,96194.00
2019-03-08T00:58:38.066Z,96199.00
2019-03-08T01:01:08.978Z,96192.00
2019-03-08T01:03:38.510Z,96190.00
2019-03-08T01:06:07.940Z,96198.00
2019-03-08T01:08:37.788Z,96208.00
2019-03-08T01:11:07.151Z,96216.00
2019-03-08T01:13:36.504Z,96216.00
2019-03-08T01:16:08.921Z,96204.00
2019-03-08T01:18:38.276Z,96204.00
2019-03-08T01:21:07.665Z,96210.00
2019-03-08T01:23:37.033Z,96207.00
2019-03-08T01:26:06.554Z,96209.00
2019-03-08T01:28:36.335Z,96216.00
2019-03-08T01:31:06.709Z,96200.00
2019-03-08T01:33:36.067Z,96200.00
2019-03-08T01:36:05.481Z,96193.00
2019-03-08T01:38:34.880Z,96201.00
2019-03-08T01:41:04.696Z,96199.00
2019-03-08T01:43:34.292Z,96194.00
2019-03-08T01:46:03.749Z,96210.00
2019-03-08T01:48:33.094Z,96206.00
2019-03-08T01:51:02.455Z,96221.00
2019-03-08T02:14:21.519Z,96237.00
2019-03-08T02:16:50.861Z,96239.00
2019-03-08T02:19:20.302Z,96249.00
2019-03-08T02:21:49.724Z,96248.00
2019-03-08T02:24:19.073Z,96246.00
2019-03-08T02:26:48.419Z,96251.00
2019-03-08T02:29:17.953Z,96245.00
2019-03-08T02:31:47.308Z,96244.00
2019-03-08T02:34:16.667Z,96245.00
2019-03-08T02:36:46.579Z,96241.00
2019-03-08T02:39:16.462Z,96248.00
2019-03-08T02:41:46.210Z,96254.00
2019-03-08T02:44:15.574Z,96262.00
2019-03-08T02:46:44.935Z,96259.00
2019-03-08T02:49:14.286Z,96270.00
2019-03-08T02:51:43.656Z,96261.00
2019-03-08T02:54:13.003Z,96270.00
2019-03-08T02:56:42.547Z,96258.00
2019-03-08T02:59:12.289Z,96268.00
2019-03-08T03:01:41.663Z,96272.00
2019-03-08T03:04:11.010Z,96287.00
2019-03-08T03:06:42.056Z,96275.00
2019-03-08T03:09:11.664Z,96282.00
2019-03-08T03:11:41.016Z,96276.00
2019-03-08T03:14:10.383Z,96295.00
2019-03-08T03:16:39.741Z,96295.00
2019-03-08T03:19:09.096Z,96306.00
2019-03-08T03:21:39.395Z,96308.00
2019-03-08T03:24:08.750Z,96305.00
2019-03-08T03:26:38.118Z,96313.00
2019-03-08T03:29:07.488Z,96322.00
2019-03-08T03:31:36.867Z,96325.00
2019-03-08T03:34:06.216Z,96331.00
2019-03-08T03:36:35.605Z,96318.00
2019-03-08T03:39:07.073Z,96323.00
2019-03-08T03:41:36.564Z,96332.00
2019-03-08T03:44:07.636Z,96320.00
2019-03-08T03:46:37.016Z,96327.00
2019-03-08T03:49:06.387Z,96318.00
2019-03-08T03:51:35.771Z,96324.00
2019-03-08T03:54:05.272Z,96332.00
2019-03-08T03:56:36.156Z,96331.00
2019-03-08T03:59:05.527Z,96341.00
2019-03-08T04:01:36.520Z,96329.00
2019-03-08T04:04:06.059Z,96338.00
2019-03-08T04:06:36.875Z,96335.00
2019-03-08T04:09:10.981Z,96338.00
2019-03-08T04:11:41.790Z,96347.00
2019-03-08T04:14:11.133Z,96354.00
2019-03-08T04:16:40.567Z,96347.00
2019-03-08T04:19:09.917Z,96370.00
2019-03-08T04:21:39.274Z,96373.00
2019-03-08T04:24:08.622Z,96381.00
2019-03-08T04:26:38.396Z,96384.00
2019-03-08T04:29:07.743Z,96387.00
2019-03-08T04:31:37.103Z,96396.00
2019-03-08T04:34:07.137Z,96390.00
2019-03-08T04:36:36.496Z,96411.00
2019-03-08T04:39:08.456Z,96404.00
2019-03-08T04:41:37.827Z,96402.00
2019-03-08T04:44:07.347Z,96405.00
2019-03-08T04:46:38.150Z,96416.00
2019-03-08T04:49:08.181Z,96415.00
2019-03-08T04:51:38.191Z,96414.00
2019-03-08T04:54:07.540Z,96424.00
2019-03-08T04:56:36.902Z,96438.00
2019-03-08T04:59:06.983Z,96464.00
2019-03-08T05:01:36.338Z,96457.00
2019-03-08T05:04:05.783Z,96461.00
2019-03-08T05:06:35.129Z,96458.00
2019-03-08T05:09:06.218Z,96474.00
2019-03-08T05:11:38.978Z,96478.00
2019-03-08T05:14:08.322Z,96495.00
2019-03-08T05:16:37.697Z,96497.00
2019-03-08T05:19:07.063Z,96488.00
2019-03-08T05:21:36.416Z,96503.00
2019-03-08T05:24:05.943Z,96500.00
2019-03-08T05:26:35.344Z,96510.00
2019-03-08T05:29:04.696Z,96513.00
2019-03-08T05:31:34.057Z,96526.00
2019-03-08T05:34:03.788Z,96523.00
2019-03-08T05:36:34.674Z,96520.00
2019-03-08T05:39:05.554Z,96530.00
2019-03-08T05:41:34.943Z,96529.00
2019-03-08T05:44:04.316Z,96533.00
2019-03-08T05:46:33.670Z,96546.00
2019-03-08T05:49:03.485Z,96535.00
2019-03-08T05:51:33.022Z,96535.00
2019-03-08T05:54:02.363Z,96559.00
2019-03-08T05:56:31.739Z,96560.00
2019-03-08T05:59:05.440Z,96560.00
2019-03-08T06:01:34.786Z,96560.00
2019-03-08T06:04:04.164Z,96568.00
2019-03-08T06:06:33.518Z,96577.00
2019-03-08T06:09:04.135Z,96578.00
2019-03-08T06:11:33.548Z,96590.00
2019-03-08T06:14:02.895Z,96595.00
2019-03-08T06:16:32.255Z,96606.00
2019-03-08T06:19:01.628Z,96613.00
2019-03-08T06:21:30.975Z,96630.00
2019-03-08T06:24:00.319Z,96615.00
2019-03-08T06:26:29.691Z,96621.00
2019-03-08T06:28:59.038Z,96623.00
2019-03-08T06:31:28.391Z,96624.00
2019-03-08T06:33:58.099Z,96640.00
2019-03-08T06:36:27.440Z,96654.00
2019-03-08T06:38:56.790Z,96660.00
2019-03-08T06:41:26.152Z,96660.00
2019-03-08T06:43:55.496Z,96674.00
2019-03-08T06:46:24.847Z,96698.00
2019-03-08T06:48:54.398Z,96694.00
2019-03-08T06:51:25.202Z,96696.00
2019-03-08T06:53:54.552Z,96704.00
2019-03-08T06:56:23.963Z,96702.00
2019-03-08T06:58:57.639Z,96706.00
2019-03-08T07:01:26.995Z,96739.00
2019-03-08T07:03:56.440Z,96736.00
2019-03-08T07:06:25.849Z,96743.00
2019-03-08T07:08:55.201Z,96749.00
2019-03-08T07:11:24.574Z,96761.00
2019-03-08T07:13:53.925Z,96763.00
2019-03-08T07:16:23.533Z,96778.00
2019-03-08T07:18:52.919Z,96789.00
2019-03-08T07:21:23.924Z,96784.00
2019-03-08T07:24:00.898Z,96774.00
2019-03-08T07:26:43.882Z,96802.00
2019-03-08T07:29:17.912Z,96804.00
2019-03-08T07:32:01.002Z,96811.00
2019-03-08T07:34:34.979Z,96813.00
2019-03-08T07:37:18.075Z,96819.00
2019-03-08T07:40:05.488Z,96838.00
2019-03-08T07:42:39.159Z,96835.00
2019-03-08T07:45:14.317Z,96846.00
2019-03-08T07:47:48.245Z,96843.00
2019-03-08T07:50:31.676Z,96853.00
2019-03-08T07:53:09.627Z,96855.00
2019-03-08T07:55:49.944Z,96867.00
2019-03-08T07:58:39.305Z,96864.00
2019-03-08T08:01:15.897Z,96872.00
2019-03-08T08:03:53.030Z,96883.00
2019-03-08T08:06:24.394Z,96882.00
2019-03-08T08:08:55.389Z,96895.00
2019-03-08T08:11:29.142Z,96893.00
2019-03-08T08:14:09.061Z,96885.00
2019-03-08T08:16:55.272Z,96899.00
2019-03-08T08:19:28.697Z,96904.00
2019-03-08T08:22:15.599Z,96909.00
2019-03-08T08:24:46.974Z,96921.00
2019-03-08T08:27:26.889Z,96908.00
2019-03-08T08:30:14.155Z,96920.00
2019-03-08T08:32:51.766Z,96927.00
2019-03-08T08:35:22.804Z,96940.00
2019-03-08T08:37:59.643Z,96935.00
2019-03-08T08:40:46.413Z,96949.00
2019-03-08T08:43:23.029Z,96952.00
2019-03-08T08:46:12.053Z,96951.00
2019-03-08T08:48:49.049Z,96960.00
2019-03-08T08:51:20.161Z,96973.00
2019-03-08T08:54:07.290Z,96976.00
2019-03-08T08:56:39.053Z,96982.00
2019-03-08T08:59:25.021Z,96982.00
2019-03-08T09:02:05.242Z,96991.00
2019-03-08T09:04:52.469Z,96993.00
2019-03-08T09:07:26.704Z,96999.00
2019-03-08T09:09:57.709Z,97009.00
2019-03-08T09:12:37.765Z,97026.00
2019-03-08T09:15:13.144Z,97025.00
2019-03-08T09:18:01.013Z,97033.00
2019-03-08T09:20:32.184Z,97040.00
2019-03-08T09:23:03.180Z,97050.00
2019-03-08T09:25:34.458Z,97050.00
2019-03-08T09:28:21.624Z,97048.00
2019-03-08T09:31:02.088Z,97047.00
2019-03-08T09:33:33.272Z,97058.00
2019-03-08T09:36:10.051Z,97069.00
2019-03-08T09:38:46.786Z,97069.00
2019-03-08T09:41:17.813Z,97076.00
2019-03-08T09:43:50.432Z,97060.00
2019-03-08T09:46:24.791Z,97071.00
2019-03-08T09:49:01.764Z,97088.00
2019-03-08T09:51:38.769Z,97100.00
2019-03-08T09:54:21.981Z,97099.00
2019-03-08T09:57:09.591Z,97118.00
2019-03-08T09:59:48.396Z,97116.00
2019-03-08T10:02:20.152Z,97118.00
2019-03-08T10:05:06.986Z,97103.00
2019-03-08T10:07:47.716Z,97115.00
2019-03-08T10:10:27.499Z,97116.00
2019-03-08T10:13:13.311Z,97115.00
2019-03-08T10:15:44.321Z,97135.00
2019-03-08T10:18:18.045Z,97148.00
2019-03-08T10:21:00.882Z,97134.00
2019-03-08T10:23:31.882Z,97139.00
2019-03-08T10:26:14.642Z,97148.00
2019-03-08T10:28:54.351Z,97150.00
2019-03-08T10:31:37.617Z,97150.00
2019-03-08T10:34:17.623Z,97143.00
2019-03-08T10:36:54.888Z,97158.00
2019-03-08T10:39:42.275Z,97155.00
2019-03-08T10:42:13.287Z,97160.00
2019-03-08T10:44:46.971Z,97169.00
2019-03-08T10:47:23.684Z,97179.00
2019-03-08T10:49:55.746Z,97188.00
2019-03-08T10:52:36.385Z,97188.00
2019-03-08T10:55:20.778Z,97183.00
2019-03-08T10:57:51.788Z,97187.00
2019-03-08T11:00:34.954Z,97203.00
2019-03-08T11:03:13.231Z,97194.00
2019-03-08T11:05:48.468Z,97212.00
2019-03-08T11:08:19.924Z,97216.00
2019-03-08T11:10:50.939Z,97221.00
2019-03-08T11:13:43.287Z,97215.00
2019-03-08T11:16:29.855Z,97220.00
2019-03-08T11:19:08.836Z,97211.00
2019-03-08T11:21:55.477Z,97214.00
2019-03-08T11:24:45.172Z,97224.00
2019-03-08T11:27:16.179Z,97221.00
2019-03-08T11:30:01.987Z,97222.00
2019-03-08T11:32:38.759Z,97232.00
2019-03-08T11:35:15.383Z,97228.00
2019-03-08T11:37:58.409Z,97245.00
2019-03-08T11:40:44.959Z,97230.00
2019-03-08T11:43:32.400Z,97249.00
2019-03-08T11:46:12.381Z,97244.00
2019-03-08T11:48:46.156Z,97261.00
2019-03-08T11:51:23.158Z,97243.00
2019-03-08T11:53:56.404Z,97235.00
2019-03-08T11:56:26.881Z,97247.00
2019-03-08T11:59:04.428Z,97258.00
2019-03-08T12:01:38.355Z,97254.00
2019-03-08T12:04:12.317Z,97268.00
2019-03-08T12:06:56.404Z,97254.00
2019-03-08T12:09:36.198Z,97264.00
2019-03-08T12:12:07.275Z,97281.00
2019-03-08T12:14:38.466Z,97268.00
2019-03-08T12:17:12.931Z,97274.00
2019-03-08T12:19:43.942Z,97268.00
2019-03-08T12:22:27.109Z,97265.00
2019-03-08T12:24:58.122Z,97264.00
2019-03-08T12:27:34.927Z,97266.00
2019-03-08T12:30:20.773Z,97273.00
2019-03-08T12:33:09.004Z,97280.00
2019-03-08T12:35:42.971Z,97274.00
2019-03-08T12:38:14.533Z,97287.00
2019-03-08T12:40:51.516Z,97282.00
2019-03-08T12:43:28.495Z,97286.00
2019-03-08T12:46:02.188Z,97290.00
2019-03-08T12:48:50.185Z,97293.00
2019-03-08T12:51:21.693Z,97287.00
2019-03-08T12:54:10.453Z,97294.00
2019-03-08T12:56:42.042Z,97287.00
2019-03-08T12:59:13.043Z,97300.00
2019-03-08T13:01:49.977Z,97292.00
2019-03-08T13:04:33.250Z,97302.00
2019-03-08T13:07:20.103Z,97291.00
2019-03-08T13:09:49.754Z,97296.00
2019-03-08T13:12:19.138Z,97291.00
2019-03-08T13:14:48.510Z,97293.00
2019-03-08T13:17:18.656Z,97290.00
2019-03-08T13:19:48.038Z,97301.00
2019-03-08T13:22:17.402Z,97297.00
2019-03-08T13:24:46.760Z,97293.00
2019-03-08T13:27:16.796Z,97287.00
2019-03-08T13:29:46.682Z,97282.00
2019-03-08T13:32:16.163Z,97287.00
2019-03-08T13:34:45.633Z,97289.00
2019-03-08T13:37:15.098Z,97287.00
2019-03-08T13:39:44.523Z,97284.00
2019-03-08T13:42:13.961Z,97292.00
2019-03-08T13:44:43.356Z,97282.00
2019-03-08T13:47:14.986Z,97283.00
2019-03-08T13:49:44.344Z,97293.00
2019-03-08T13:52:13.780Z,97291.00
2019-03-08T13:54:43.133Z,97310.00
2019-03-08T13:57:12.485Z,97309.00
2019-03-08T13:59:44.141Z,97314.00
2019-03-08T14:02:13.501Z,97304.00
2019-03-08T14:04:42.866Z,97311.00
2019-03-08T14:07:13.737Z,97314.00
2019-03-08T14:09:43.103Z,97316.00
2019-03-08T14:12:12.999Z,97302.00
2019-03-08T14:14:42.402Z,97310.00
2019-03-08T14:17:11.755Z,97301.00
2019-03-08T14:19:41.122Z,97306.00
2019-03-08T14:22:10.514Z,97314.00
2019-03-08T14:24:39.907Z,97310.00
2019-03-08T14:27:09.513Z,97325.00
2019-03-08T14:29:40.840Z,97317.00
2019-03-08T14:32:11.487Z,97320.00
2019-03-08T14:34:40.853Z,97313.00
2019-03-08T14:37:10.642Z,97315.00
2019-03-08T14:39:44.241Z,97317.00
2019-03-08T14:42:19.463Z,97311.00
2019-03-08T14:44:57.967Z,97319.00
2019-03-08T14:47:33.324Z,97326.00
2019-03-08T14:50:00.756Z,97309.00
2019-03-08T14:52:30.110Z,97313.00
2019-03-08T14:55:00.328Z,97313.00
2019-03-08T14:57:30.156Z,97325.00
2019-03-08T14:59:59.529Z,97308.00
2019-03-08T15:02:28.954Z,97321.00
2019-03-08T15:04:58.303Z,97305.00
2019-03-08T15:07:27.673Z,97313.00
2019-03-08T15:09:57.043Z,97313.00
2019-03-08T15:12:26.393Z,97317.00
2019-03-08T15:14:56.036Z,97321.00
2019-03-08T15:17:29.033Z,97314.00
2019-03-08T15:19:59.555Z,97327.00
2019-03-08T15:22:28.932Z,97332.00
2019-03-08T15:24:58.309Z,97329.00
2019-03-08T15:27:27.690Z,97341.00
2019-03-08T15:29:57.056Z,97353.00
2019-03-08T15:32:26.425Z,97336.00
2019-03-08T15:34:55.783Z,97335.00
2019-03-08T15:37:25.147Z,97335.00
2019-03-08T15:39:55.003Z,97335.00
2019-03-08T15:42:24.367Z,97328.00
2019-03-08T15:44:54.408Z,97341.00
2019-03-08T15:47:24.439Z,97338.00
2019-03-08T15:49:54.469Z,97333.00
2019-03-08T15:52:23.833Z,97333.00
2019-03-08T15:54:53.212Z,97338.00
2019-03-08T15:57:22.632Z,97347.00
2019-03-08T15:59:52.525Z,97351.00
2019-03-08T16:02:21.970Z,97353.00
2019-03-08T16:04:51.584Z,97356.00
2019-03-08T16:07:23.037Z,97345.00
2019-03-08T16:09:52.065Z,97342.00
2019-03-08T16:12:21.582Z,97350.00
2019-03-08T16:14:50.976Z,97356.00
2019-03-08T16:17:21.308Z,97363.00
2019-03-08T16:19:50.679Z,97353.00
2019-03-08T16:22:24.852Z,97357.00
2019-03-08T16:24:54.954Z,97350.00
2019-03-08T16:27:24.218Z,97358.00
2019-03-08T16:29:53.381Z,97358.00
2019-03-08T16:32:33.309Z,97347.00
2019-03-08T16:35:02.344Z,97335.00
2019-03-08T16:37:33.017Z,97326.00
2019-03-08T16:40:03.743Z,97329.00
2019-03-08T16:42:37.086Z,97334.00
2019-03-08T16:45:08.974Z,97323.00
2019-03-08T16:47:55.833Z,97324.00
2019-03-08T16:50:35.558Z,97334.00
2019-03-08T16:53:06.250Z,97338.00
2019-03-08T16:55:49.497Z,97332.00
2019-03-08T16:58:20.428Z,97325.00
2019-03-08T17:01:00.400Z,97322.00
2019-03-08T17:03:35.425Z,97322.00
2019-03-08T17:06:12.829Z,97329.00
2019-03-08T17:08:52.609Z,97332.00
2019-03-08T17:11:35.479Z,97337.00
2019-03-08T17:14:12.447Z,97327.00
2019-03-08T17:16:43.442Z,97334.00
2019-03-08T17:19:15.899Z,97337.00
2019-03-08T17:22:03.387Z,97331.00
2019-03-08T17:24:49.630Z,97319.00
2019-03-08T17:27:20.648Z,97327.00
2019-03-08T17:30:06.934Z,97337.00
2019-03-08T17:32:42.515Z,97332.00
2019-03-08T17:35:31.683Z,97321.00
2019-03-08T17:38:08.647Z,97312.00
2019-03-08T17:40:39.653Z,97326.00
2019-03-08T17:43:13.357Z,97323.00
2019-03-08T17:46:00.938Z,97323.00
2019-03-08T17:48:34.923Z,97324.00
2019-03-08T17:51:22.688Z,97340.00
2019-03-08T17:54:00.548Z,97345.00
2019-03-08T17:56:48.163Z,97342.00
2019-03-08T17:59:24.961Z,97332.00
2019-03-08T18:01:56.233Z,97339.00
2019-03-08T18:04:42.547Z,97339.00
2019-03-08T18:07:16.775Z,97342.00
2019-03-08T18:09:53.693Z,97348.00
2019-03-08T18:12:28.105Z,97348.00
2019-03-08T18:15:07.885Z,97353.00
2019-03-08T18:17:44.731Z,97354.00
2019-03-08T18:20:24.234Z,97356.00
2019-03-08T18:22:55.578Z,97357.00
2019-03-08T18:25:32.227Z,97357.00
2019-03-08T18:28:18.226Z,97341.00
2019-03-08T18:30:58.181Z,97359.00
2019-03-08T18:33:41.712Z,97364.00
2019-03-08T18:36:28.790Z,97367.00
2019-03-08T18:39:06.768Z,97368.00
2019-03-08T18:41:38.881Z,97359.00
2019-03-08T18:44:15.857Z,97357.00
2019-03-08T18:46:49.514Z,97368.00
2019-03-08T18:49:28.348Z,97370.00
2019-03-08T18:52:02.531Z,97357.00
2019-03-08T18:54:43.786Z,97359.00
2019-03-08T18:57:17.808Z,97354.00
2019-03-08T18:59:49.478Z,97365.00
2019-03-08T19:02:35.478Z,97366.00
2019-03-08T19:05:13.530Z,97372.00
2019-03-08T19:07:50.103Z,97368.00
2019-03-08T19:10:24.612Z,97377.00
2019-03-08T19:13:01.347Z,97378.00
2019-03-08T19:15:38.087Z,97376.00
2019-03-08T19:18:14.877Z,97375.00
2019-03-08T19:20:55.051Z,97375.00
2019-03-08T19:23:28.707Z,97386.00
2019-03-08T19:26:03.964Z,97378.00
2019-03-08T19:28:41.118Z,97378.00
2019-03-08T19:31:21.183Z,97384.00
2019-03-08T19:33:55.575Z,97381.00
2019-03-08T19:36:29.550Z,97378.00
2019-03-08T19:39:03.485Z,97381.00
2019-03-08T19:41:41.648Z,97385.00
2019-03-08T19:44:12.636Z,97383.00
2019-03-08T19:47:00.238Z,97382.00
2019-03-08T19:49:34.160Z,97385.00
2019-03-08T19:52:05.166Z,97364.00
2019-03-08T19:54:45.138Z,97382.00
2019-03-08T19:57:19.046Z,97376.00
2019-03-08T20:00:09.034Z,97376.00
2019-03-08T20:02:42.835Z,97377.00
2019-03-08T20:05:19.762Z,97357.00
2019-03-08T20:08:05.815Z,97365.00
2019-03-08T20:10:39.824Z,97360.00
2019-03-08T20:13:16.483Z,97361.00
2019-03-08T20:16:05.549Z,97367.00
2019-03-08T20:18:53.108Z,97342.00
2019-03-08T20:21:29.891Z,97346.00
2019-03-08T20:24:00.890Z,97339.00
2019-03-08T20:26:46.889Z,97346.00
2019-03-08T20:29:34.778Z,97345.00
2019-03-08T20:32:12.319Z,97346.00
2019-03-08T20:34:43.322Z,97348.00
2019-03-08T20:37:17.276Z,97343.00
2019-03-08T20:39:55.693Z,97342.00
2019-03-08T20:42:44.831Z,97341.00
2019-03-08T20:45:19.395Z,97336.00
2019-03-08T20:47:48.937Z,97330.00
2019-03-08T20:50:18.682Z,97326.00
2019-03-08T20:52:48.031Z,97333.00
2019-03-08T20:55:20.043Z,97333.00
2019-03-08T20:57:49.429Z,97332.00
2019-03-08T21:00:19.059Z,97338.00
2019-03-08T21:02:48.474Z,97330.00
2019-03-08T21:05:17.915Z,97322.00
2019-03-08T21:07:50.170Z,97324.00
2019-03-08T21:10:19.529Z,97321.00
2019-03-08T21:12:49.798Z,97304.00
2019-03-08T21:15:25.336Z,97301.00
2019-03-08T21:17:50.243Z,97301.00
2019-03-08T21:20:19.628Z,97302.00
2019-03-08T21:22:48.980Z,97290.00
2019-03-08T21:25:18.434Z,97286.00
2019-03-08T21:27:49.387Z,97292.00
2019-03-08T21:30:20.436Z,97281.00
2019-03-08T21:32:50.158Z,97281.00
2019-03-08T21:35:19.975Z,97279.00
2019-03-08T21:37:49.341Z,97275.00
2019-03-08T21:40:18.689Z,97280.00
2019-03-08T21:42:48.067Z,97270.00
2019-03-08T21:45:21.156Z,97282.00
2019-03-08T21:47:50.498Z,97275.00
2019-03-08T21:50:20.034Z,97288.00
2019-03-08T21:52:49.379Z,97284.00
2019-03-08T21:55:18.756Z,97277.00
2019-03-08T21:57:51.615Z,97265.00
2019-03-08T22:00:29.638Z,97269.00
2019-03-08T22:02:59.016Z,97265.00
2019-03-08T22:05:32.992Z,97252.00
2019-03-08T22:08:02.347Z,97255.00
2019-03-08T22:10:39.362Z,97246.00
2019-03-08T22:13:08.683Z,97246.00
2019-03-08T22:15:39.129Z,97233.00
2019-03-08T22:18:08.562Z,97238.00
2019-03-08T22:20:37.940Z,97214.00
2019-03-08T22:23:07.472Z,97214.00
2019-03-08T22:25:36.838Z,97201.00
2019-03-08T22:28:06.184Z,97212.00
2019-03-08T22:30:35.536Z,97204.00
2019-03-08T22:33:04.978Z,97203.00
2019-03-08T22:35:34.820Z,97199.00
2019-03-08T22:38:04.168Z,97185.00
2019-03-08T22:40:33.926Z,97194.00
2019-03-08T22:43:03.285Z,97179.00
2019-03-08T22:45:32.630Z,97178.00
2019-03-08T22:48:02.004Z,97177.00
2019-03-08T22:50:31.349Z,97168.00
2019-03-08T22:53:00.703Z,97171.00
2019-03-08T22:55:30.141Z,97162.00
2019-03-08T22:57:59.482Z,97174.00
2019-03-08T23:00:59.274Z,97163.00
2019-03-08T23:03:30.130Z,97154.00
2019-03-08T23:05:59.636Z,97152.00
2019-03-08T23:08:29.422Z,97138.00
2019-03-08T23:10:58.784Z,97148.00
2019-03-08T23:13:28.133Z,97139.00
2019-03-08T23:15:57.573Z,97139.00
2019-03-08T23:18:26.926Z,97126.00
2019-03-08T23:20:56.554Z,97123.00
2019-03-08T23:23:25.977Z,97125.00
2019-03-08T23:25:55.323Z,97115.00
2019-03-08T23:28:26.320Z,97097.00
2019-03-08T23:31:03.020Z,97115.00
2019-03-08T23:33:32.388Z,97105.00
2019-03-08T23:36:01.740Z,97118.00
2019-03-08T23:38:31.384Z,97106.00
2019-03-08T23:41:00.730Z,97103.00
2019-03-08T23:43:30.125Z,97102.00
2019-03-08T23:45:59.574Z,97107.00
2019-03-08T23:48:28.930Z,97083.00
2019-03-08T23:50:58.286Z,97098.00
2019-03-08T23:53:27.681Z,97091.00
2019-03-08T23:55:57.039Z,97093.00
2019-03-08T23:58:26.395Z,97081.00
